Terminal Aerodrome Forecast
Issued by NWS Melbourne, FL

Home | Current Version | Previous Version | Text Only | Print | Product List | Glossary On
Versions: 1 2 3 4 5 6 7 8 9 10 11 12 13 14 15 16 17 18 19 20 21 22 23 24 25 26 27 28
000
FTUS42 KMLB 300053 AAA
TAFMCO
TAF AMD
KMCO 300053Z 3001/3024 10012KT P6SM SCT030 SCT250
     FM300300 11009KT P6SM FEW030 SCT250
     FM300600 11007KT P6SM SCT025 SCT050 BKN250
      TEMPO 3009/3012 BKN020
     FM301500 14015G21KT P6SM FEW025 SCT040 BKN060=

USA.gov is the U.S. government's official web portal to all federal, state and local government web resources and services.